Terminal Aerodrome Forecast
Issued by NWS Jackson, MS

Home | Current Version | Previous Version | Text Only | Print | Product List | Glossary On
Versions: 1 2 3 4 5 6 7 8 9 10 11 12 13 14 15 16 17 18 19 20
078
FTUS44 KMEG 061724
TAFTUP
TAF
KTUP 061724Z 0618/0718 30008KT P6SM OVC008
      TEMPO 0620/0624 OVC010
     FM070000 34005KT P6SM OVC012
      TEMPO 0708/0712 OVC009
     FM071600 01007KT P6SM BKN015 OVC250=

USA.gov is the U.S. government's official web portal to all federal, state and local government web resources and services.